createdAt,value
2022-08-22T00:01:14.689Z,1.92
2022-08-22T00:04:33.465Z,1.67
2022-08-22T00:07:56.429Z,1.80
2022-08-22T00:11:12.350Z,2.20
2022-08-22T00:14:26.155Z,1.80
2022-08-22T00:17:43.845Z,1.90
2022-08-22T00:20:56.009Z,1.60
2022-08-22T00:24:16.822Z,1.90
2022-08-22T00:27:29.839Z,1.60
2022-08-22T00:30:49.047Z,2.05
2022-08-22T00:34:00.635Z,2.00
2022-08-22T00:37:19.521Z,2.00
2022-08-22T00:40:39.432Z,1.90
2022-08-22T00:44:05.642Z,1.70
2022-08-22T00:47:45.891Z,2.15
2022-08-22T00:51:13.230Z,1.90
2022-08-22T00:54:30.895Z,1.70
2022-08-22T00:58:09.151Z,2.40
2022-08-22T01:01:18.591Z,2.15
2022-08-22T01:04:41.658Z,1.92
2022-08-22T01:08:12.653Z,2.17
2022-08-22T01:11:42.677Z,2.10
2022-08-22T01:14:52.596Z,2.17
2022-08-22T01:18:32.594Z,1.90
2022-08-22T01:22:15.747Z,2.00
2022-08-22T01:26:01.914Z,2.00
2022-08-22T01:29:50.795Z,1.92
2022-08-22T01:33:32.920Z,1.95
2022-08-22T01:37:07.983Z,2.40
2022-08-22T01:40:54.485Z,2.00
2022-08-22T01:44:24.753Z,2.25
2022-08-22T01:47:39.608Z,1.90
2022-08-22T01:50:49.025Z,2.20
2022-08-22T01:54:05.512Z,2.40
2022-08-22T01:57:12.201Z,2.22
2022-08-22T02:00:35.243Z,2.40
2022-08-22T02:03:47.041Z,2.30
2022-08-22T02:07:05.847Z,2.55
2022-08-22T02:10:21.387Z,2.72
2022-08-22T02:13:49.914Z,2.10
2022-08-22T02:17:01.939Z,2.30
2022-08-22T02:20:21.341Z,2.40
2022-08-22T02:23:33.247Z,2.25
2022-08-22T02:26:50.414Z,2.60
2022-08-22T02:30:06.561Z,2.38
2022-08-22T02:33:19.759Z,2.17
2022-08-22T02:36:31.452Z,2.47
2022-08-22T02:39:47.718Z,2.20
2022-08-22T02:43:03.052Z,2.17
2022-08-22T02:46:22.655Z,2.47
2022-08-22T02:49:35.758Z,2.33
2022-08-22T02:53:02.994Z,2.42
2022-08-22T02:56:15.933Z,2.63
2022-08-22T02:59:39.203Z,2.28
2022-08-22T03:03:02.879Z,2.20
2022-08-22T03:06:32.752Z,2.20
2022-08-22T03:09:43.415Z,2.33
2022-08-22T03:13:01.448Z,2.05
2022-08-22T03:16:17.056Z,2.20
2022-08-22T03:19:35.063Z,2.53
2022-08-22T03:22:49.629Z,2.28
2022-08-22T03:26:09.337Z,2.15
2022-08-22T03:29:20.509Z,2.30
2022-08-22T03:32:53.631Z,1.98
2022-08-22T03:36:09.046Z,2.00
2022-08-22T03:39:23.515Z,2.10
2022-08-22T03:43:00.145Z,2.20
2022-08-22T03:46:49.541Z,2.13
2022-08-22T03:50:17.125Z,2.53
2022-08-22T03:53:57.134Z,2.15
2022-08-22T03:57:43.400Z,2.20
2022-08-22T04:01:22.716Z,1.95
2022-08-22T04:05:00.959Z,2.03
2022-08-22T04:08:49.532Z,2.08
2022-08-22T04:12:13.568Z,2.25
2022-08-22T04:15:42.839Z,2.00
2022-08-22T04:19:03.673Z,1.88
2022-08-22T04:22:45.233Z,2.17
2022-08-22T04:25:59.846Z,1.98
2022-08-22T04:29:21.664Z,2.00
2022-08-22T04:32:36.849Z,1.80
2022-08-22T04:35:53.297Z,2.00
2022-08-22T04:39:05.855Z,2.05
2022-08-22T04:42:34.873Z,2.00
2022-08-22T04:45:44.961Z,2.08
2022-08-22T04:48:58.627Z,2.00
2022-08-22T04:52:14.673Z,1.90
2022-08-22T04:55:38.444Z,2.20
2022-08-22T04:58:50.897Z,2.08
2022-08-22T05:02:06.358Z,2.20
2022-08-22T05:05:17.225Z,1.75
2022-08-22T05:08:28.652Z,2.00
2022-08-22T05:11:35.389Z,1.98
2022-08-22T05:14:50.298Z,2.08
2022-08-22T05:18:03.899Z,1.88
2022-08-22T05:21:13.902Z,2.15
2022-08-22T05:24:27.886Z,2.15
2022-08-22T05:27:43.653Z,1.80
2022-08-22T05:30:53.343Z,2.00
2022-08-22T05:34:06.751Z,1.75
2022-08-22T05:37:18.025Z,1.92
2022-08-22T05:40:30.033Z,2.10
2022-08-22T05:43:40.901Z,2.15
2022-08-22T05:46:54.459Z,2.08
2022-08-22T05:50:05.109Z,2.10
2022-08-22T05:53:16.138Z,1.70
2022-08-22T05:56:28.497Z,2.20
2022-08-22T05:59:43.908Z,1.98
2022-08-22T06:03:04.586Z,1.90
2022-08-22T06:06:18.685Z,2.00
2022-08-22T06:09:35.454Z,1.90
2022-08-22T06:12:48.261Z,2.00
2022-08-22T06:16:06.012Z,1.88
2022-08-22T06:19:19.827Z,1.80
2022-08-22T06:22:28.458Z,1.95
2022-08-22T06:25:37.979Z,1.95
2022-08-22T06:28:55.413Z,1.90
2022-08-22T06:35:19.083Z,1.77
2022-08-22T06:38:33.780Z,1.70
2022-08-22T06:41:43.988Z,1.85
2022-08-22T06:44:57.892Z,2.00
2022-08-22T06:48:20.451Z,1.88
2022-08-22T06:51:32.688Z,1.85
2022-08-22T06:54:43.726Z,1.85
2022-08-22T06:57:57.446Z,1.75
2022-08-22T07:01:12.062Z,1.98
2022-08-22T07:04:21.576Z,1.98
2022-08-22T07:07:31.842Z,1.80
2022-08-22T07:10:43.729Z,1.65
2022-08-22T07:17:03.408Z,1.83
2022-08-22T07:20:19.163Z,2.40
2022-08-22T07:23:37.083Z,2.17
2022-08-22T07:26:49.528Z,1.95
2022-08-22T07:30:10.152Z,1.92
2022-08-22T07:33:29.969Z,2.10
2022-08-22T07:36:50.455Z,1.73
2022-08-22T07:40:07.010Z,1.80
2022-08-22T07:43:26.851Z,1.73
2022-08-22T07:46:38.885Z,2.10
2022-08-22T07:49:53.999Z,1.55
2022-08-22T07:53:11.151Z,2.15
2022-08-22T07:56:37.397Z,1.80
2022-08-22T07:59:53.887Z,1.70
2022-08-22T08:03:18.317Z,1.67
2022-08-22T08:06:32.794Z,1.63
2022-08-22T08:09:58.352Z,1.70
2022-08-22T08:13:11.012Z,1.67
2022-08-22T08:16:22.822Z,1.55
2022-08-22T08:19:29.169Z,1.50
2022-08-22T08:22:41.847Z,1.60
2022-08-22T08:25:57.728Z,1.50
2022-08-22T08:29:09.402Z,1.55
2022-08-22T08:32:16.701Z,1.30
2022-08-22T08:35:27.028Z,1.42
2022-08-22T08:38:39.328Z,1.60
2022-08-22T08:42:11.538Z,1.98
2022-08-22T08:45:52.100Z,1.20
2022-08-22T08:49:25.185Z,1.45
2022-08-22T08:53:02.289Z,1.30
2022-08-22T08:56:26.721Z,1.23
2022-08-22T08:59:49.908Z,1.17
2022-08-22T09:03:30.263Z,1.30
2022-08-22T09:07:19.895Z,1.50
2022-08-22T09:10:53.668Z,1.50
2022-08-22T09:14:21.646Z,1.55
2022-08-22T09:18:04.898Z,1.48
2022-08-22T09:21:55.116Z,1.23
2022-08-22T09:25:38.386Z,1.50
2022-08-22T09:29:13.966Z,1.60
2022-08-22T09:32:34.296Z,1.42
2022-08-22T09:36:03.414Z,1.50
2022-08-22T09:39:31.200Z,1.40
2022-08-22T09:43:09.239Z,1.23
2022-08-22T09:46:37.629Z,1.38
2022-08-22T09:49:55.044Z,1.25
2022-08-22T09:53:13.239Z,1.35
2022-08-22T09:56:26.859Z,1.35
2022-08-22T09:59:54.816Z,1.67
2022-08-22T10:03:15.323Z,1.25
2022-08-22T10:06:28.636Z,1.30
2022-08-22T10:09:44.849Z,1.20
2022-08-22T10:13:04.287Z,1.25
2022-08-22T10:16:27.953Z,1.33
2022-08-22T10:19:40.641Z,1.52
2022-08-22T10:22:54.521Z,1.15
2022-08-22T10:26:12.716Z,1.30
2022-08-22T10:30:04.621Z,1.38
2022-08-22T10:33:19.070Z,1.45
2022-08-22T10:36:37.119Z,1.63
2022-08-22T10:39:49.040Z,1.40
2022-08-22T10:43:00.872Z,1.23
2022-08-22T10:46:17.748Z,1.65
2022-08-22T10:49:29.319Z,1.52
2022-08-22T10:52:47.437Z,1.40
2022-08-22T10:55:59.367Z,1.33
2022-08-22T10:59:19.527Z,1.50
2022-08-22T11:03:01.102Z,1.33
2022-08-22T11:06:18.427Z,1.23
2022-08-22T11:09:36.266Z,1.40
2022-08-22T11:12:49.441Z,1.60
2022-08-22T11:16:04.166Z,10.55
2022-08-22T11:19:32.095Z,257.20
2022-08-22T11:22:51.983Z,324.55
2022-08-22T11:26:13.648Z,356.08
2022-08-22T11:29:34.702Z,364.88
2022-08-22T11:33:07.278Z,340.83
2022-08-22T11:36:31.584Z,329.58
2022-08-22T11:39:47.192Z,314.65
2022-08-22T11:43:05.092Z,302.75
2022-08-22T11:46:27.104Z,290.45
2022-08-22T11:49:51.851Z,280.40
2022-08-22T11:53:17.775Z,262.70
2022-08-22T11:56:29.831Z,228.55
2022-08-22T12:00:00.038Z,223.68
2022-08-22T12:03:34.325Z,226.83
2022-08-22T12:07:00.674Z,225.63
2022-08-22T12:10:13.967Z,219.02
2022-08-22T12:13:36.355Z,205.85
2022-08-22T12:16:49.503Z,194.73
2022-08-22T12:20:16.394Z,194.07
2022-08-22T12:23:56.173Z,187.57
2022-08-22T12:27:33.303Z,169.75
2022-08-22T12:30:45.166Z,155.50
2022-08-22T12:34:12.063Z,147.48
2022-08-22T12:37:31.017Z,139.95
2022-08-22T12:40:59.933Z,130.13
2022-08-22T12:44:24.354Z,117.25
2022-08-22T12:47:42.247Z,102.47
2022-08-22T12:50:55.662Z,102.00
2022-08-22T12:54:26.724Z,91.57
2022-08-22T12:57:43.836Z,95.22
2022-08-22T13:00:55.308Z,92.63
2022-08-22T13:04:09.022Z,85.43
2022-08-22T13:07:29.160Z,78.45
2022-08-22T13:10:42.823Z,76.07
2022-08-22T13:13:57.387Z,69.70
2022-08-22T13:17:23.637Z,63.90
2022-08-22T13:20:37.363Z,58.65
2022-08-22T13:23:50.885Z,56.58
2022-08-22T13:27:06.013Z,51.58
2022-08-22T13:30:14.462Z,48.53
2022-08-22T13:33:31.424Z,44.80
2022-08-22T13:36:52.016Z,44.40
2022-08-22T13:40:04.746Z,39.95
2022-08-22T13:43:13.275Z,36.90
2022-08-22T13:46:30.734Z,33.72
2022-08-22T13:49:48.449Z,32.55
2022-08-22T13:53:03.832Z,32.00
2022-08-22T13:56:20.574Z,28.27
2022-08-22T13:59:50.400Z,23.67
2022-08-22T14:03:05.426Z,21.60
2022-08-22T14:06:41.274Z,20.25
2022-08-22T14:09:57.285Z,18.77
2022-08-22T14:13:41.609Z,17.88
2022-08-22T14:16:52.070Z,15.60
2022-08-22T14:20:04.992Z,14.20
2022-08-22T14:23:27.031Z,13.25
2022-08-22T14:26:47.939Z,12.38
2022-08-22T14:30:01.593Z,12.05
2022-08-22T14:33:16.179Z,10.05
2022-08-22T14:36:26.204Z,9.95
2022-08-22T14:39:44.207Z,9.55
2022-08-22T14:42:54.670Z,9.82
2022-08-22T14:46:07.340Z,8.57
2022-08-22T14:49:29.045Z,9.02
2022-08-22T14:52:41.031Z,8.30
2022-08-22T14:59:11.115Z,7.07
2022-08-22T15:02:32.727Z,6.15
2022-08-22T15:05:47.428Z,5.97
2022-08-22T15:08:54.401Z,5.75
2022-08-22T15:12:09.036Z,5.50
2022-08-22T15:15:29.983Z,4.53
2022-08-22T15:18:39.162Z,3.85
2022-08-22T15:21:44.739Z,4.50
2022-08-22T15:25:01.094Z,4.00
2022-08-22T15:28:14.452Z,3.97
2022-08-22T15:31:28.312Z,3.58
2022-08-22T15:34:39.855Z,3.97
2022-08-22T15:38:01.551Z,3.80
2022-08-22T15:41:36.767Z,2.73
2022-08-22T15:44:50.657Z,3.10
2022-08-22T15:47:57.463Z,3.03
2022-08-22T15:51:10.560Z,2.80
2022-08-22T15:54:25.492Z,3.28
2022-08-22T15:57:36.665Z,2.90
2022-08-22T16:00:48.036Z,2.30
2022-08-22T16:04:03.581Z,2.80
2022-08-22T16:07:25.803Z,2.63
2022-08-22T16:10:42.176Z,2.15
2022-08-22T16:13:48.912Z,2.63
2022-08-22T16:17:04.470Z,2.35
2022-08-22T16:20:45.397Z,1.90
2022-08-22T16:24:30.255Z,2.10
2022-08-22T16:27:39.997Z,2.10
2022-08-22T16:30:47.507Z,2.22
2022-08-22T16:34:23.150Z,1.80
2022-08-22T16:37:44.095Z,1.90
2022-08-22T16:40:51.695Z,1.90
2022-08-22T16:44:41.919Z,1.73
2022-08-22T16:48:02.438Z,1.50
2022-08-22T16:51:22.372Z,1.88
2022-08-22T16:54:46.499Z,1.90
2022-08-22T16:58:07.247Z,1.73
2022-08-22T17:01:21.836Z,1.60
2022-08-22T17:04:37.788Z,1.65
2022-08-22T17:07:57.620Z,1.70
2022-08-22T17:11:15.712Z,1.67
2022-08-22T17:14:37.990Z,1.50
2022-08-22T17:18:01.026Z,1.80
2022-08-22T17:21:26.136Z,1.60
2022-08-22T17:24:45.938Z,1.70
2022-08-22T17:27:57.226Z,13.38
2022-08-22T17:31:12.012Z,394.02
2022-08-22T17:34:32.242Z,693.72
2022-08-22T17:37:52.208Z,618.00
2022-08-22T17:41:10.294Z,549.40
2022-08-22T17:44:30.649Z,476.92
2022-08-22T17:47:47.519Z,403.17
2022-08-22T17:50:58.950Z,361.10
2022-08-22T17:54:09.702Z,341.58
2022-08-22T17:57:32.876Z,323.23
2022-08-22T18:00:42.679Z,303.58
2022-08-22T18:04:01.125Z,279.83
2022-08-22T18:07:44.208Z,268.52
2022-08-22T18:10:58.358Z,246.68
2022-08-22T18:14:13.538Z,236.82
2022-08-22T18:17:24.679Z,224.52
2022-08-22T18:20:37.377Z,206.73
2022-08-22T18:23:49.625Z,196.95
2022-08-22T18:27:01.797Z,188.95
2022-08-22T18:30:22.889Z,174.82
2022-08-22T18:33:35.938Z,166.90
2022-08-22T18:36:54.819Z,162.93
2022-08-22T18:40:05.025Z,153.27
2022-08-22T18:43:23.586Z,141.40
2022-08-22T18:46:43.680Z,135.73
2022-08-22T18:49:57.154Z,126.63
2022-08-22T18:53:03.334Z,123.30
2022-08-22T18:56:15.518Z,115.97
2022-08-22T18:59:37.972Z,112.13
2022-08-22T19:03:21.976Z,102.50
2022-08-22T19:06:51.888Z,95.85
2022-08-22T19:10:34.804Z,88.18
2022-08-22T19:14:09.114Z,86.07
2022-08-22T19:17:39.987Z,80.78
2022-08-22T19:21:34.422Z,74.87
2022-08-22T19:25:10.023Z,66.95
2022-08-22T19:28:38.839Z,65.32
2022-08-22T19:31:52.659Z,59.15
2022-08-22T19:35:21.420Z,53.40
2022-08-22T19:38:57.049Z,50.45
2022-08-22T19:42:02.669Z,48.45
2022-08-22T19:45:25.902Z,45.08
2022-08-22T19:48:35.332Z,43.70
2022-08-22T19:51:42.838Z,42.03
2022-08-22T19:54:58.261Z,37.92
2022-08-22T19:58:13.646Z,37.70
2022-08-22T20:01:39.250Z,36.53
2022-08-22T20:05:03.843Z,35.45
2022-08-22T20:08:34.377Z,34.88
2022-08-22T20:11:51.941Z,29.42
2022-08-22T20:14:57.711Z,27.63
2022-08-22T20:18:47.271Z,26.05
2022-08-22T20:21:46.980Z,24.10
2022-08-22T20:24:57.744Z,23.83
2022-08-22T20:28:09.442Z,21.65
2022-08-22T20:31:25.211Z,21.20
2022-08-22T20:34:34.112Z,19.88
2022-08-22T20:38:05.821Z,19.00
2022-08-22T20:41:21.006Z,18.17
2022-08-22T20:44:34.196Z,16.95
2022-08-22T20:47:44.440Z,15.15
2022-08-22T20:50:55.244Z,13.75
2022-08-22T20:54:10.057Z,13.27
2022-08-22T20:57:23.438Z,12.65
2022-08-22T21:00:35.445Z,11.57
2022-08-22T21:03:46.662Z,11.13
2022-08-22T21:07:02.693Z,9.75
2022-08-22T21:10:36.508Z,9.77
2022-08-22T21:13:42.151Z,8.75
2022-08-22T21:16:53.395Z,7.78
2022-08-22T21:19:59.913Z,7.40
2022-08-22T21:23:09.857Z,7.45
2022-08-22T21:26:23.691Z,6.70
2022-08-22T21:29:34.144Z,6.75
2022-08-22T21:32:46.507Z,6.10
2022-08-22T21:36:00.442Z,6.50
2022-08-22T21:39:09.063Z,5.25
2022-08-22T21:42:26.167Z,5.45
2022-08-22T21:45:35.723Z,5.63
2022-08-22T21:48:59.871Z,4.80
2022-08-22T21:52:05.543Z,5.55
2022-08-22T21:55:19.034Z,4.70
2022-08-22T21:58:35.583Z,4.45
2022-08-22T22:01:45.802Z,4.28
2022-08-22T22:04:54.232Z,3.55
2022-08-22T22:08:01.939Z,3.00
2022-08-22T22:11:10.752Z,3.30
2022-08-22T22:14:18.325Z,3.20
2022-08-22T22:17:24.341Z,3.10
2022-08-22T22:20:35.196Z,2.78
2022-08-22T22:23:40.767Z,2.95
2022-08-22T22:26:48.290Z,2.50
2022-08-22T22:29:53.710Z,2.83
2022-08-22T22:33:01.734Z,2.47
2022-08-22T22:36:13.789Z,2.25
2022-08-22T22:39:21.423Z,2.50
2022-08-22T22:42:28.089Z,2.42
2022-08-22T22:45:35.685Z,2.35
2022-08-22T22:48:41.421Z,2.45
2022-08-22T22:51:52.481Z,1.98
2022-08-22T22:55:00.920Z,2.20
2022-08-22T22:58:08.919Z,2.28
2022-08-22T23:01:19.320Z,2.17
2022-08-22T23:04:26.768Z,1.75
2022-08-22T23:07:35.214Z,1.95
2022-08-22T23:10:42.633Z,2.20
2022-08-22T23:13:49.099Z,1.90
2022-08-22T23:16:57.824Z,1.73
2022-08-22T23:20:03.658Z,1.92
2022-08-22T23:23:14.249Z,1.70
2022-08-22T23:26:21.706Z,1.98
2022-08-22T23:29:29.678Z,1.77
2022-08-22T23:32:36.608Z,1.90
2022-08-22T23:35:44.336Z,2.00
2022-08-22T23:38:54.027Z,1.98
2022-08-22T23:42:02.546Z,2.15
2022-08-22T23:45:09.088Z,1.55
2022-08-22T23:48:16.607Z,1.50
2022-08-22T23:51:25.140Z,1.60
2022-08-22T23:54:35.776Z,1.73
2022-08-22T23:57:41.467Z,1.65
